Cliffdell, Washington
Current Conditions -  °F | °C
As of 12:53 AM on Saturday 29 Nov 2014 (Local Time) from KYKM Reporting Station
Clear Clear  
Wind Chill: 38°   Ceiling: Unl
Heat Index: 38°   Visibility: 10mi
Dew Point: 22°   Wind: 3mph
Humidity: 53%   Direction: 130°SE
Pressure: 29.42"   Gusts: NA
Location:  46.6628°N, 121.193°W
Report Text: KYKM 290853Z AUTO 13003KT 10SM CLR 03/M06 A2942 RMK AO2 SLP965 T00331056 51020
Loading
Personal Weather Stations






























Interactive Weather Map New forecast layout! Learn more

10-Day Weather Forecast

Advertisements
Track Severe Weather on mobile